Playa Del Carmen, ROO, Mexico
Current Conditions -  °F | °C
As of 9:40 AM on Wednesday 26 Nov 2014 (Local Time) from MMCZ Reporting Station
Broken Clouds Broken Clouds  
Wind Chill: 72°   Ceiling: 10000
Heat Index: 72°   Visibility: 8mi
Dew Point: 66°   Wind: 17mph
Humidity: 83%   Direction: 360°N
Pressure: 30.14"   Gusts: NA
Location:  20.62°N, 87.07°W
Report Text: MMCZ 261540Z 36015KT 8SM FEW012 BKN100 BKN250 22/19 A3014 RMK 8/477 RTS
Loading
Personal Weather Stations






























Interactive Weather Map New forecast layout! Learn more

10-Day Weather Forecast

Advertisements
Track Severe Weather on mobile